Main page
METAR-TAF:

METAR-TAF

Airports :

Málaga Airport

Málaga, Spain

latitude: 36-40N, longitude: 004-29W, elevation: 16 m

Current weather observation

The report was made 19 minutes ago, at 10:00 UTC
Wind 5 kt from the West/Northwest
Temperature 16°C
Humidity 88%
Pressure 1016 hPa
Visibility 10 km or more
Few clouds at a height of 2500 ft
Scattered clouds at a height of 8000 ft

METAR: LEMG 061000Z 30005KT 9999 FEW025 SCT080 16/14 Q1016 NOSIG

Time: 11:19 (10:19 UTC)

Forecast

The report was made 5 hours and 19 minutes ago, at 05:00 UTC
Forecast valid from 06 at 06 UTC to 07 at 06 UTC
Wind 3 kt from variable directions
Visibility 10 km or more
Few clouds at a height of 3000 ft
Probability 30%
from 06 at 06 UTC to 06 at 09 UTC
Visibility: 4000 m
mist
Becoming
from 06 at 17 UTC to 06 at 19 UTC
Wind 6 kt from the West

TAF: LEMG 060500Z 0606/0706 VRB03KT 9999 FEW030 TX18/0612Z TN11/0606Z PROB30 0606/0609 4000 BR BECMG 0617/0619 28006KT

Weather observations and forecasts of more than 4000 airports (METAR and TAF reports).

The available stations are represented by yellow and red dots on the map.

Hover mouse over dot to see the name of the station.

Then click to see weather observations and forecasts.

To change the map : click on the green buttons with a black cross to zoom in, on the green button with a dash to zoom out, or on the green arrows for adjacent maps.


METAR-TAF: